sensor_id;sensor_type;location;lat;lon;timestamp;temperature;humidity
22676;DHT22;12521;43.310;21.876;2022-11-18T00:02:34;9.0;96.0
22676;DHT22;12521;43.310;21.876;2022-11-18T00:07:11;8.9;96.0
22676;DHT22;12521;43.310;21.876;2022-11-18T00:11:47;8.9;96.0
22676;DHT22;12521;43.310;21.876;2022-11-18T00:16:24;8.9;96.0
22676;DHT22;12521;43.310;21.876;2022-11-18T00:21:01;8.9;96.0
22676;DHT22;12521;43.310;21.876;2022-11-18T00:25:42;8.9;96.0
22676;DHT22;12521;43.310;21.876;2022-11-18T00:30:19;8.9;96.0
22676;DHT22;12521;43.310;21.876;2022-11-18T00:34:55;8.9;96.0
22676;DHT22;12521;43.310;21.876;2022-11-18T00:39:31;8.9;96.0
22676;DHT22;12521;43.310;21.876;2022-11-18T00:44:08;8.9;96.0
22676;DHT22;12521;43.310;21.876;2022-11-18T00:48:44;8.9;96.0
22676;DHT22;12521;43.310;21.876;2022-11-18T00:53:21;8.9;96.0
22676;DHT22;12521;43.310;21.876;2022-11-18T00:58:01;8.8;96.0
22676;DHT22;12521;43.310;21.876;2022-11-18T01:02:38;8.8;96.0
22676;DHT22;12521;43.310;21.876;2022-11-18T01:07:15;8.7;96.0
22676;DHT22;12521;43.310;21.876;2022-11-18T01:11:51;8.7;96.0
22676;DHT22;12521;43.310;21.876;2022-11-18T01:16:28;8.6;96.0
22676;DHT22;12521;43.310;21.876;2022-11-18T01:21:05;8.6;96.0
22676;DHT22;12521;43.310;21.876;2022-11-18T01:25:44;8.6;96.0
22676;DHT22;12521;43.310;21.876;2022-11-18T01:30:24;8.4;96.0
22676;DHT22;12521;43.310;21.876;2022-11-18T01:35:01;8.4;96.0
22676;DHT22;12521;43.310;21.876;2022-11-18T01:39:37;8.2;96.0
22676;DHT22;12521;43.310;21.876;2022-11-18T01:45:25;8.2;96.0
22676;DHT22;12521;43.310;21.876;2022-11-18T01:50:15;8.1;96.0
22676;DHT22;12521;43.310;21.876;2022-11-18T01:55:04;8.1;96.0
22676;DHT22;12521;43.310;21.876;2022-11-18T01:59:54;8.1;96.0
22676;DHT22;12521;43.310;21.876;2022-11-18T02:04:37;8.1;96.0
22676;DHT22;12521;43.310;21.876;2022-11-18T02:09:22;8.1;96.0
22676;DHT22;12521;43.310;21.876;2022-11-18T02:14:01;8.1;96.0
22676;DHT22;12521;43.310;21.876;2022-11-18T02:18:50;8.0;96.0
22676;DHT22;12521;43.310;21.876;2022-11-18T02:25:14;8.0;96.0
22676;DHT22;12521;43.310;21.876;2022-11-18T02:30:49;8.0;96.0
22676;DHT22;12521;43.310;21.876;2022-11-18T02:35:56;8.0;96.0
22676;DHT22;12521;43.310;21.876;2022-11-18T02:41:08;7.8;96.0
22676;DHT22;12521;43.310;21.876;2022-11-18T02:46:04;7.8;96.0
22676;DHT22;12521;43.310;21.876;2022-11-18T02:50:56;7.7;96.0
22676;DHT22;12521;43.310;21.876;2022-11-18T02:55:45;7.7;96.0
22676;DHT22;12521;43.310;21.876;2022-11-18T03:00:29;7.6;96.0
22676;DHT22;12521;43.310;21.876;2022-11-18T03:05:16;7.6;96.0
22676;DHT22;12521;43.310;21.876;2022-11-18T03:10:27;7.6;96.0
22676;DHT22;12521;43.310;21.876;2022-11-18T03:15:43;7.6;96.0
22676;DHT22;12521;43.310;21.876;2022-11-18T03:20:48;7.6;96.0
22676;DHT22;12521;43.310;21.876;2022-11-18T03:25:48;7.6;96.0
22676;DHT22;12521;43.310;21.876;2022-11-18T03:30:38;7.5;96.0
22676;DHT22;12521;43.310;21.876;2022-11-18T03:35:34;7.5;96.0
22676;DHT22;12521;43.310;21.876;2022-11-18T03:40:27;7.6;96.0
22676;DHT22;12521;43.310;21.876;2022-11-18T03:45:22;7.6;96.0
22676;DHT22;12521;43.310;21.876;2022-11-18T03:50:25;7.7;96.0
22676;DHT22;12521;43.310;21.876;2022-11-18T03:55:28;7.7;96.0
22676;DHT22;12521;43.310;21.876;2022-11-18T04:00:28;7.8;96.0
22676;DHT22;12521;43.310;21.876;2022-11-18T04:05:29;7.8;96.0
22676;DHT22;12521;43.310;21.876;2022-11-18T04:10:20;8.0;96.0
22676;DHT22;12521;43.310;21.876;2022-11-18T04:15:14;8.0;96.0
22676;DHT22;12521;43.310;21.876;2022-11-18T04:19:53;8.0;96.0
22676;DHT22;12521;43.310;21.876;2022-11-18T04:24:31;8.0;96.0
22676;DHT22;12521;43.310;21.876;2022-11-18T04:29:08;8.1;96.0
22676;DHT22;12521;43.310;21.876;2022-11-18T04:33:44;8.1;96.0
22676;DHT22;12521;43.310;21.876;2022-11-18T04:38:20;8.0;96.0
22676;DHT22;12521;43.310;21.876;2022-11-18T04:42:56;8.0;96.0
22676;DHT22;12521;43.310;21.876;2022-11-18T04:47:33;7.8;96.0
22676;DHT22;12521;43.310;21.876;2022-11-18T04:52:09;7.8;96.0
22676;DHT22;12521;43.310;21.876;2022-11-18T04:56:47;7.8;96.0
22676;DHT22;12521;43.310;21.876;2022-11-18T05:01:25;7.8;96.0
22676;DHT22;12521;43.310;21.876;2022-11-18T05:06:06;7.8;96.0
22676;DHT22;12521;43.310;21.876;2022-11-18T05:10:43;7.7;96.0
22676;DHT22;12521;43.310;21.876;2022-11-18T05:15:21;7.7;96.0
22676;DHT22;12521;43.310;21.876;2022-11-18T05:19:58;7.8;96.0
22676;DHT22;12521;43.310;21.876;2022-11-18T05:24:34;7.8;96.0
22676;DHT22;12521;43.310;21.876;2022-11-18T05:29:11;7.9;96.0
22676;DHT22;12521;43.310;21.876;2022-11-18T05:33:48;7.9;96.0
22676;DHT22;12521;43.310;21.876;2022-11-18T05:38:26;7.8;96.0
22676;DHT22;12521;43.310;21.876;2022-11-18T05:43:02;7.8;96.0
22676;DHT22;12521;43.310;21.876;2022-11-18T05:47:39;7.7;96.0
22676;DHT22;12521;43.310;21.876;2022-11-18T05:52:15;7.7;96.0
22676;DHT22;12521;43.310;21.876;2022-11-18T05:56:52;7.6;96.0
22676;DHT22;12521;43.310;21.876;2022-11-18T06:01:31;7.6;96.0
22676;DHT22;12521;43.310;21.876;2022-11-18T06:06:25;7.6;96.0
22676;DHT22;12521;43.310;21.876;2022-11-18T06:11:02;7.6;96.0
22676;DHT22;12521;43.310;21.876;2022-11-18T06:15:50;7.6;96.0
22676;DHT22;12521;43.310;21.876;2022-11-18T06:20:27;7.6;96.0
22676;DHT22;12521;43.310;21.876;2022-11-18T06:25:05;7.6;96.0
22676;DHT22;12521;43.310;21.876;2022-11-18T06:29:43;7.5;96.0
22676;DHT22;12521;43.310;21.876;2022-11-18T06:34:20;7.5;96.0
22676;DHT22;12521;43.310;21.876;2022-11-18T06:39:01;7.6;96.0
22676;DHT22;12521;43.310;21.876;2022-11-18T06:43:42;7.6;96.0
22676;DHT22;12521;43.310;21.876;2022-11-18T06:48:18;7.6;96.0
22676;DHT22;12521;43.310;21.876;2022-11-18T06:52:55;7.6;96.0
22676;DHT22;12521;43.310;21.876;2022-11-18T06:57:35;7.8;96.0
22676;DHT22;12521;43.310;21.876;2022-11-18T07:02:12;7.8;96.0
22676;DHT22;12521;43.310;21.876;2022-11-18T07:06:48;7.9;96.0
22676;DHT22;12521;43.310;21.876;2022-11-18T07:11:25;7.9;96.0
22676;DHT22;12521;43.310;21.876;2022-11-18T07:16:04;7.9;96.0
22676;DHT22;12521;43.310;21.876;2022-11-18T07:20:46;8.0;96.0
22676;DHT22;12521;43.310;21.876;2022-11-18T07:25:23;8.0;96.0
22676;DHT22;12521;43.310;21.876;2022-11-18T07:29:59;8.2;96.0
22676;DHT22;12521;43.310;21.876;2022-11-18T07:34:35;8.2;96.0
22676;DHT22;12521;43.310;21.876;2022-11-18T07:39:12;8.3;96.0
22676;DHT22;12521;43.310;21.876;2022-11-18T07:43:49;8.3;96.0
22676;DHT22;12521;43.310;21.876;2022-11-18T07:48:31;8.4;96.0
22676;DHT22;12521;43.310;21.876;2022-11-18T07:53:07;8.4;96.0
22676;DHT22;12521;43.310;21.876;2022-11-18T07:57:44;8.6;96.0
22676;DHT22;12521;43.310;21.876;2022-11-18T08:02:20;8.6;96.0
22676;DHT22;12521;43.310;21.876;2022-11-18T08:06:56;8.7;96.0
22676;DHT22;12521;43.310;21.876;2022-11-18T08:11:32;8.7;96.0
22676;DHT22;12521;43.310;21.876;2022-11-18T08:16:12;8.7;96.0
22676;DHT22;12521;43.310;21.876;2022-11-18T08:21:00;8.6;96.0
22676;DHT22;12521;43.310;21.876;2022-11-18T08:25:40;8.6;96.0
22676;DHT22;12521;43.310;21.876;2022-11-18T08:30:21;8.4;96.0
22676;DHT22;12521;43.310;21.876;2022-11-18T08:34:57;8.4;96.0
22676;DHT22;12521;43.310;21.876;2022-11-18T08:39:34;8.9;96.0
22676;DHT22;12521;43.310;21.876;2022-11-18T08:44:13;8.9;96.0
22676;DHT22;12521;43.310;21.876;2022-11-18T08:48:51;9.4;96.0
22676;DHT22;12521;43.310;21.876;2022-11-18T08:53:27;9.4;96.0
22676;DHT22;12521;43.310;21.876;2022-11-18T08:58:04;9.8;96.0
22676;DHT22;12521;43.310;21.876;2022-11-18T09:02:40;9.8;96.0
22676;DHT22;12521;43.310;21.876;2022-11-18T09:07:17;10.2;96.0
22676;DHT22;12521;43.310;21.876;2022-11-18T09:11:56;10.2;96.0
22676;DHT22;12521;43.310;21.876;2022-11-18T09:16:34;10.2;96.0
22676;DHT22;12521;43.310;21.876;2022-11-18T09:21:11;10.7;96.0
22676;DHT22;12521;43.310;21.876;2022-11-18T09:25:47;10.7;96.0
22676;DHT22;12521;43.310;21.876;2022-11-18T09:30:34;11.2;96.0
22676;DHT22;12521;43.310;21.876;2022-11-18T09:35:10;11.2;96.0
22676;DHT22;12521;43.310;21.876;2022-11-18T09:39:47;11.6;96.0
22676;DHT22;12521;43.310;21.876;2022-11-18T09:44:38;11.6;96.0
22676;DHT22;12521;43.310;21.876;2022-11-18T09:49:59;12.0;96.0
22676;DHT22;12521;43.310;21.876;2022-11-18T09:54:50;12.0;96.0
22676;DHT22;12521;43.310;21.876;2022-11-18T09:59:30;12.4;96.0
22676;DHT22;12521;43.310;21.876;2022-11-18T10:04:12;12.4;96.0
22676;DHT22;12521;43.310;21.876;2022-11-18T10:09:01;12.7;96.0
22676;DHT22;12521;43.310;21.876;2022-11-18T10:14:18;12.7;96.0
22676;DHT22;12521;43.310;21.876;2022-11-18T10:19:56;12.8;96.0
22676;DHT22;12521;43.310;21.876;2022-11-18T10:25:28;12.8;96.0
22676;DHT22;12521;43.310;21.876;2022-11-18T10:30:11;12.8;96.0
22676;DHT22;12521;43.310;21.876;2022-11-18T10:34:59;12.8;96.0
22676;DHT22;12521;43.310;21.876;2022-11-18T10:39:48;12.9;96.0
22676;DHT22;12521;43.310;21.876;2022-11-18T10:44:36;12.9;96.0
22676;DHT22;12521;43.310;21.876;2022-11-18T10:49:16;13.0;96.0
22676;DHT22;12521;43.310;21.876;2022-11-18T10:54:06;13.0;96.0
22676;DHT22;12521;43.310;21.876;2022-11-18T10:58:54;13.1;96.0
22676;DHT22;12521;43.310;21.876;2022-11-18T11:03:33;13.1;96.0
22676;DHT22;12521;43.310;21.876;2022-11-18T11:08:19;13.2;96.0
22676;DHT22;12521;43.310;21.876;2022-11-18T11:13:00;13.2;96.0
22676;DHT22;12521;43.310;21.876;2022-11-18T11:17:56;13.2;96.0
22676;DHT22;12521;43.310;21.876;2022-11-18T11:22:40;13.2;96.0
22676;DHT22;12521;43.310;21.876;2022-11-18T11:27:24;13.3;96.0
22676;DHT22;12521;43.310;21.876;2022-11-18T11:32:28;13.3;96.0
22676;DHT22;12521;43.310;21.876;2022-11-18T11:38:05;13.3;96.0
22676;DHT22;12521;43.310;21.876;2022-11-18T11:43:34;13.3;96.0
22676;DHT22;12521;43.310;21.876;2022-11-18T11:49:25;13.3;96.0
22676;DHT22;12521;43.310;21.876;2022-11-18T11:54:45;13.3;96.0
22676;DHT22;12521;43.310;21.876;2022-11-18T12:00:10;13.3;96.0
22676;DHT22;12521;43.310;21.876;2022-11-18T12:04:59;13.3;96.0
22676;DHT22;12521;43.310;21.876;2022-11-18T12:10:22;13.3;96.0
22676;DHT22;12521;43.310;21.876;2022-11-18T12:15:43;13.3;96.0
22676;DHT22;12521;43.310;21.876;2022-11-18T12:20:59;13.2;96.0
22676;DHT22;12521;43.310;21.876;2022-11-18T12:26:08;13.2;96.0
22676;DHT22;12521;43.310;21.876;2022-11-18T12:30:46;13.2;96.0
22676;DHT22;12521;43.310;21.876;2022-11-18T12:35:26;13.2;96.0
22676;DHT22;12521;43.310;21.876;2022-11-18T12:40:33;13.2;96.0
22676;DHT22;12521;43.310;21.876;2022-11-18T12:45:49;13.2;96.0
22676;DHT22;12521;43.310;21.876;2022-11-18T12:50:46;13.1;96.0
22676;DHT22;12521;43.310;21.876;2022-11-18T12:55:31;13.1;96.0
22676;DHT22;12521;43.310;21.876;2022-11-18T13:00:16;13.0;96.0
22676;DHT22;12521;43.310;21.876;2022-11-18T13:05:13;13.0;96.0
22676;DHT22;12521;43.310;21.876;2022-11-18T13:10:15;13.0;96.0
22676;DHT22;12521;43.310;21.876;2022-11-18T13:15:13;13.0;96.0
22676;DHT22;12521;43.310;21.876;2022-11-18T13:19:54;13.0;96.0
22676;DHT22;12521;43.310;21.876;2022-11-18T13:24:42;13.0;96.0
22676;DHT22;12521;43.310;21.876;2022-11-18T13:29:34;13.1;96.0
22676;DHT22;12521;43.310;21.876;2022-11-18T13:34:42;13.1;96.0
22676;DHT22;12521;43.310;21.876;2022-11-18T13:39:29;13.2;96.0
22676;DHT22;12521;43.310;21.876;2022-11-18T13:44:10;13.2;96.0
22676;DHT22;12521;43.310;21.876;2022-11-18T13:49:01;13.3;96.0
22676;DHT22;12521;43.310;21.876;2022-11-18T13:53:39;13.3;96.0
22676;DHT22;12521;43.310;21.876;2022-11-18T13:58:32;13.2;96.0
22676;DHT22;12521;43.310;21.876;2022-11-18T14:03:22;13.2;96.0
22676;DHT22;12521;43.310;21.876;2022-11-18T14:08:22;13.2;96.0
22676;DHT22;12521;43.310;21.876;2022-11-18T14:13:17;13.2;96.0
22676;DHT22;12521;43.310;21.876;2022-11-18T14:18:18;13.2;96.0
22676;DHT22;12521;43.310;21.876;2022-11-18T14:23:15;13.2;96.0
22676;DHT22;12521;43.310;21.876;2022-11-18T14:28:11;13.1;96.0
22676;DHT22;12521;43.310;21.876;2022-11-18T14:33:09;13.1;96.0
22676;DHT22;12521;43.310;21.876;2022-11-18T14:37:56;13.0;96.0
22676;DHT22;12521;43.310;21.876;2022-11-18T14:42:33;13.0;96.0
22676;DHT22;12521;43.310;21.876;2022-11-18T14:47:14;12.9;96.0
22676;DHT22;12521;43.310;21.876;2022-11-18T14:52:04;12.9;96.0
22676;DHT22;12521;43.310;21.876;2022-11-18T14:56:46;12.9;96.0
22676;DHT22;12521;43.310;21.876;2022-11-18T15:01:27;12.8;96.0
22676;DHT22;12521;43.310;21.876;2022-11-18T15:06:08;12.8;96.0
22676;DHT22;12521;43.310;21.876;2022-11-18T15:10:49;12.8;96.0
22676;DHT22;12521;43.310;21.876;2022-11-18T15:15:25;12.8;96.0
22676;DHT22;12521;43.310;21.876;2022-11-18T15:20:03;12.8;96.0
22676;DHT22;12521;43.310;21.876;2022-11-18T15:24:44;12.8;96.0
22676;DHT22;12521;43.310;21.876;2022-11-18T15:29:22;12.8;96.0
22676;DHT22;12521;43.310;21.876;2022-11-18T15:34:00;12.8;96.0
22676;DHT22;12521;43.310;21.876;2022-11-18T15:38:37;12.8;96.0
22676;DHT22;12521;43.310;21.876;2022-11-18T15:43:13;12.8;96.0
22676;DHT22;12521;43.310;21.876;2022-11-18T15:47:50;12.7;96.0
22676;DHT22;12521;43.310;21.876;2022-11-18T15:52:27;12.7;96.0
22676;DHT22;12521;43.310;21.876;2022-11-18T15:57:03;12.7;96.0
22676;DHT22;12521;43.310;21.876;2022-11-18T16:01:42;12.7;96.0
22676;DHT22;12521;43.310;21.876;2022-11-18T16:06:24;12.7;96.0
22676;DHT22;12521;43.310;21.876;2022-11-18T16:11:02;12.7;96.0
22676;DHT22;12521;43.310;21.876;2022-11-18T16:15:39;12.7;96.0
22676;DHT22;12521;43.310;21.876;2022-11-18T16:20:16;12.7;96.0
22676;DHT22;12521;43.310;21.876;2022-11-18T16:24:53;12.7;96.0
22676;DHT22;12521;43.310;21.876;2022-11-18T16:29:29;12.7;96.0
22676;DHT22;12521;43.310;21.876;2022-11-18T16:34:06;12.7;96.0
22676;DHT22;12521;43.310;21.876;2022-11-18T16:38:48;12.7;96.0
22676;DHT22;12521;43.310;21.876;2022-11-18T16:43:25;12.7;96.0
22676;DHT22;12521;43.310;21.876;2022-11-18T16:48:01;12.7;96.0
22676;DHT22;12521;43.310;21.876;2022-11-18T16:52:38;12.7;96.0
22676;DHT22;12521;43.310;21.876;2022-11-18T16:57:15;12.6;96.0
22676;DHT22;12521;43.310;21.876;2022-11-18T17:01:52;12.6;96.0
22676;DHT22;12521;43.310;21.876;2022-11-18T17:06:34;12.6;96.0
22676;DHT22;12521;43.310;21.876;2022-11-18T17:11:12;12.6;96.0
22676;DHT22;12521;43.310;21.876;2022-11-18T17:15:50;12.6;96.0
22676;DHT22;12521;43.310;21.876;2022-11-18T17:20:26;12.6;96.0
22676;DHT22;12521;43.310;21.876;2022-11-18T17:25:04;12.6;96.0
22676;DHT22;12521;43.310;21.876;2022-11-18T17:29:42;12.6;96.0
22676;DHT22;12521;43.310;21.876;2022-11-18T17:34:19;12.6;96.0
22676;DHT22;12521;43.310;21.876;2022-11-18T17:38:57;12.6;96.0
22676;DHT22;12521;43.310;21.876;2022-11-18T17:43:35;12.6;96.0
22676;DHT22;12521;43.310;21.876;2022-11-18T17:48:11;12.6;96.0
22676;DHT22;12521;43.310;21.876;2022-11-18T17:52:47;12.6;96.0
22676;DHT22;12521;43.310;21.876;2022-11-18T17:57:23;12.6;96.0
22676;DHT22;12521;43.310;21.876;2022-11-18T18:01:59;12.6;96.0
22676;DHT22;12521;43.310;21.876;2022-11-18T18:06:35;12.6;96.0
22676;DHT22;12521;43.310;21.876;2022-11-18T18:11:14;12.6;96.0
22676;DHT22;12521;43.310;21.876;2022-11-18T18:15:58;12.6;96.0
22676;DHT22;12521;43.310;21.876;2022-11-18T18:20:38;12.6;96.0
22676;DHT22;12521;43.310;21.876;2022-11-18T18:25:15;12.6;96.0
22676;DHT22;12521;43.310;21.876;2022-11-18T18:29:52;12.6;96.0
22676;DHT22;12521;43.310;21.876;2022-11-18T18:34:28;12.6;96.0
22676;DHT22;12521;43.310;21.876;2022-11-18T18:39:05;12.6;96.0
22676;DHT22;12521;43.310;21.876;2022-11-18T18:43:43;12.6;96.0
22676;DHT22;12521;43.310;21.876;2022-11-18T18:48:24;12.5;96.0
22676;DHT22;12521;43.310;21.876;2022-11-18T18:53:01;12.5;96.0
22676;DHT22;12521;43.310;21.876;2022-11-18T18:57:37;12.4;96.0
22676;DHT22;12521;43.310;21.876;2022-11-18T19:02:14;12.4;96.0
22676;DHT22;12521;43.310;21.876;2022-11-18T19:06:50;12.4;96.0
22676;DHT22;12521;43.310;21.876;2022-11-18T19:11:27;12.4;96.0
22676;DHT22;12521;43.310;21.876;2022-11-18T19:16:04;12.4;96.0
22676;DHT22;12521;43.310;21.876;2022-11-18T19:20:43;12.4;96.0
22676;DHT22;12521;43.310;21.876;2022-11-18T19:25:19;12.4;96.0
22676;DHT22;12521;43.310;21.876;2022-11-18T19:29:56;12.3;96.0
22676;DHT22;12521;43.310;21.876;2022-11-18T19:34:32;12.3;96.0
22676;DHT22;12521;43.310;21.876;2022-11-18T19:39:09;12.3;96.0
22676;DHT22;12521;43.310;21.876;2022-11-18T19:43:45;12.3;96.0
22676;DHT22;12521;43.310;21.876;2022-11-18T19:48:22;12.3;96.0
22676;DHT22;12521;43.310;21.876;2022-11-18T19:53:01;12.3;96.0
22676;DHT22;12521;43.310;21.876;2022-11-18T19:57:38;12.3;96.0
22676;DHT22;12521;43.310;21.876;2022-11-18T20:02:15;12.3;96.0
22676;DHT22;12521;43.310;21.876;2022-11-18T20:06:51;12.3;96.0
22676;DHT22;12521;43.310;21.876;2022-11-18T20:11:28;12.3;96.0
22676;DHT22;12521;43.310;21.876;2022-11-18T20:16:06;12.3;96.0
22676;DHT22;12521;43.310;21.876;2022-11-18T20:20:47;12.4;96.0
22676;DHT22;12521;43.310;21.876;2022-11-18T20:25:23;12.4;96.0
22676;DHT22;12521;43.310;21.876;2022-11-18T20:29:59;12.4;96.0
22676;DHT22;12521;43.310;21.876;2022-11-18T20:34:36;12.4;96.0
22676;DHT22;12521;43.310;21.876;2022-11-18T20:39:14;12.4;96.0
22676;DHT22;12521;43.310;21.876;2022-11-18T20:43:51;12.4;96.0
22676;DHT22;12521;43.310;21.876;2022-11-18T20:48:29;12.5;96.0
22676;DHT22;12521;43.310;21.876;2022-11-18T20:53:05;12.5;96.0
22676;DHT22;12521;43.310;21.876;2022-11-18T20:57:41;12.6;96.0
22676;DHT22;12521;43.310;21.876;2022-11-18T21:02:18;12.6;96.0
22676;DHT22;12521;43.310;21.876;2022-11-18T21:06:55;12.6;96.0
22676;DHT22;12521;43.310;21.876;2022-11-18T21:11:32;12.6;96.0
22676;DHT22;12521;43.310;21.876;2022-11-18T21:16:12;12.6;96.0
22676;DHT22;12521;43.310;21.876;2022-11-18T21:20:49;12.6;96.0
22676;DHT22;12521;43.310;21.876;2022-11-18T21:25:31;12.6;96.0
22676;DHT22;12521;43.310;21.876;2022-11-18T21:30:10;12.5;96.0
22676;DHT22;12521;43.310;21.876;2022-11-18T21:34:48;12.5;96.0
22676;DHT22;12521;43.310;21.876;2022-11-18T21:39:25;12.4;96.0
22676;DHT22;12521;43.310;21.876;2022-11-18T21:44:02;12.4;96.0
22676;DHT22;12521;43.310;21.876;2022-11-18T21:48:46;12.4;96.0
22676;DHT22;12521;43.310;21.876;2022-11-18T21:53:23;12.4;96.0
22676;DHT22;12521;43.310;21.876;2022-11-18T21:57:59;12.4;96.0
22676;DHT22;12521;43.310;21.876;2022-11-18T22:02:35;12.4;96.0
22676;DHT22;12521;43.310;21.876;2022-11-18T22:07:12;12.4;96.0
22676;DHT22;12521;43.310;21.876;2022-11-18T22:11:48;12.4;96.0
22676;DHT22;12521;43.310;21.876;2022-11-18T22:16:25;12.4;96.0
22676;DHT22;12521;43.310;21.876;2022-11-18T22:21:04;12.4;96.0
22676;DHT22;12521;43.310;21.876;2022-11-18T22:25:54;12.4;96.0
22676;DHT22;12521;43.310;21.876;2022-11-18T22:30:35;12.3;96.0
22676;DHT22;12521;43.310;21.876;2022-11-18T22:35:12;12.3;96.0
22676;DHT22;12521;43.310;21.876;2022-11-18T22:39:49;12.2;96.0
22676;DHT22;12521;43.310;21.876;2022-11-18T22:44:26;12.2;96.0
22676;DHT22;12521;43.310;21.876;2022-11-18T22:49:04;12.2;96.0
22676;DHT22;12521;43.310;21.876;2022-11-18T22:53:46;12.2;96.0
22676;DHT22;12521;43.310;21.876;2022-11-18T22:58:23;12.2;96.0
22676;DHT22;12521;43.310;21.876;2022-11-18T23:03:00;12.2;96.0
22676;DHT22;12521;43.310;21.876;2022-11-18T23:07:36;12.2;96.0
22676;DHT22;12521;43.310;21.876;2022-11-18T23:12:12;12.2;96.0
22676;DHT22;12521;43.310;21.876;2022-11-18T23:16:49;12.2;96.0
22676;DHT22;12521;43.310;21.876;2022-11-18T23:21:25;12.2;96.0
22676;DHT22;12521;43.310;21.876;2022-11-18T23:26:03;12.2;96.0
22676;DHT22;12521;43.310;21.876;2022-11-18T23:30:47;12.2;96.0
22676;DHT22;12521;43.310;21.876;2022-11-18T23:35:24;12.2;96.0
22676;DHT22;12521;43.310;21.876;2022-11-18T23:40:01;12.2;96.0
22676;DHT22;12521;43.310;21.876;2022-11-18T23:44:42;12.2;96.0
22676;DHT22;12521;43.310;21.876;2022-11-18T23:49:18;12.3;96.0
22676;DHT22;12521;43.310;21.876;2022-11-18T23:53:56;12.3;96.0
22676;DHT22;12521;43.310;21.876;2022-11-18T23:58:33;12.3;96.0
